Globe, Arizona
Current Conditions -  °F | °C
As of 6:48 AM on Thursday 27 Nov 2014 (Local Time) from KIWA Reporting Station
Clear Clear  
Wind Chill: 38°   Ceiling: Unl
Heat Index: 43°   Visibility: 20mi
Dew Point: 19°   Wind: 8mph
Humidity: 39%   Direction: 80°E
Pressure: 30.22"   Gusts: NA
Location:  33.4°N, 110.78°W
Report Text: KIWA 271348Z 08007KT 20SM SKC 06/M07 A3022
Loading
Personal Weather Stations






























Interactive Weather Map New forecast layout! Learn more

10-Day Weather Forecast

Advertisements
Track Severe Weather on mobile